Time;durP1;ratioP1;P1;durP2;ratioP2;P2;SDS_P1;SDS_P2;PMS_P1;PMS_P2;Temp;Humidity;BMP_temperature;BMP_pressure;BME280_temperature;BME280_humidity;BME280_pressure;Samples;Min_cycle;Max_cycle;Signal;HPM_P1;HPM_P2
2023/03/12 00:02:07;;;;;;;4.65;1.08;;;;;;;5.04;53.65;100673.16;5079334;27;96993;-73
2023/03/12 00:04:35;;;;;;;5.25;1.40;;;;;;;5.09;53.31;100663.47;5081151;27;98974;-73
2023/03/12 00:07:05;;;;;;;6.00;1.40;;;;;;;4.99;52.22;100663.66;5080625;27;99090;-74
2023/03/12 00:09:35;;;;;;;3.42;1.25;;;;;;;5.04;53.02;100660.06;5085748;27;96709;-75
2023/03/12 00:12:01;;;;;;;4.30;1.48;;;;;;;5.08;52.65;100664.34;5076906;27;98916;-73
2023/03/12 00:14:28;;;;;;;4.00;1.45;;;;;;;4.86;53.00;100668.16;5084292;27;99441;-73
2023/03/12 00:16:54;;;;;;;5.63;1.52;;;;;;;4.80;53.11;100666.47;5086237;27;97580;-75
2023/03/12 00:19:21;;;;;;;4.78;1.20;;;;;;;4.87;52.51;100664.66;5081263;27;96775;-74
2023/03/12 00:21:48;;;;;;;5.25;1.35;;;;;;;5.10;51.86;100654.75;5080844;27;97220;-74
2023/03/12 00:24:15;;;;;;;6.57;1.15;;;;;;;4.86;53.10;100660.28;5086129;27;99412;-74
2023/03/12 00:26:42;;;;;;;7.30;1.25;;;;;;;4.97;52.35;100666.28;5084513;27;98862;-73
2023/03/12 00:29:08;;;;;;;4.20;1.00;;;;;;;4.99;52.21;100669.72;5079765;27;96996;-75
2023/03/12 00:31:34;;;;;;;3.53;1.33;;;;;;;5.15;52.24;100666.00;5083902;27;96810;-75
2023/03/12 00:34:02;;;;;;;4.28;1.27;;;;;;;5.07;52.00;100672.22;5085106;27;98840;-74
2023/03/12 00:36:31;;;;;;;6.03;2.00;;;;;;;4.65;52.94;100668.44;5085688;27;99633;-74
2023/03/12 00:38:59;;;;;;;6.88;1.30;;;;;;;4.86;52.82;100673.38;5089956;27;97127;-74
2023/03/12 00:41:29;;;;;;;4.15;1.50;;;;;;;4.98;51.76;100670.63;5077445;27;97192;-74
2023/03/12 00:43:55;;;;;;;3.92;1.33;;;;;;;4.90;51.98;100675.09;5073988;27;99239;-74
2023/03/12 00:46:22;;;;;;;6.68;1.25;;;;;;;5.02;52.23;100679.28;5086594;27;99525;-74
2023/03/12 00:48:48;;;;;;;4.72;1.73;;;;;;;5.17;51.76;100674.72;5074454;27;96731;-73
2023/03/12 00:51:15;;;;;;;5.65;1.27;;;;;;;5.24;51.33;100680.72;5088611;27;96932;-73
2023/03/12 00:53:41;;;;;;;3.60;1.30;;;;;;;5.48;50.94;100688.22;5083875;27;99290;-74
2023/03/12 00:56:08;;;;;;;2.78;1.33;;;;;;;5.60;51.02;100688.00;5076684;27;99276;-73
2023/03/12 00:58:36;;;;;;;6.28;1.40;;;;;;;5.44;50.68;100693.53;5077587;27;98529;-75
2023/03/12 01:01:02;;;;;;;7.13;1.48;;;;;;;5.47;50.34;100690.84;5084823;27;97342;-74
2023/03/12 01:03:29;;;;;;;6.38;1.70;;;;;;;5.43;50.92;100691.78;5082569;27;99610;-73
2023/03/12 01:05:55;;;;;;;2.85;1.38;;;;;;;5.54;50.50;100689.88;5086761;27;99584;-74
2023/03/12 01:08:23;;;;;;;6.00;1.52;;;;;;;5.55;50.42;100691.59;5083002;27;97678;-73
2023/03/12 01:10:50;;;;;;;4.72;1.83;;;;;;;5.54;50.72;100695.09;5083285;27;96985;-73
2023/03/12 01:13:17;;;;;;;7.90;1.52;;;;;;;5.60;49.95;100700.25;5084669;27;99077;-73
2023/03/12 01:15:45;;;;;;;3.20;1.30;;;;;;;5.30;51.26;100696.34;5081712;27;99175;-73
2023/03/12 01:18:12;;;;;;;6.13;1.25;;;;;;;5.45;51.42;100695.22;5084993;27;97120;-72
2023/03/12 01:20:40;;;;;;;3.60;1.48;;;;;;;5.71;50.39;100690.44;5081302;27;97502;-73
2023/03/12 01:23:06;;;;;;;4.03;1.30;;;;;;;5.70;49.31;100696.59;5078589;27;101766;-73
2023/03/12 01:25:33;;;;;;;4.15;1.30;;;;;;;5.65;50.58;100687.06;5086238;27;99342;-73
2023/03/12 01:28:00;;;;;;;8.02;1.65;;;;;;;5.49;50.71;100686.47;5086623;27;97233;-76
2023/03/12 01:30:27;;;;;;;6.95;1.50;;;;;;;5.76;50.62;100693.00;5088333;27;97424;-73
2023/03/12 01:32:55;;;;;;;4.10;1.50;;;;;;;5.73;50.41;100691.28;5079344;27;99001;-74
2023/03/12 01:35:21;;;;;;;4.45;1.80;;;;;;;5.61;50.28;100702.84;5089042;27;97727;-73
2023/03/12 01:37:47;;;;;;;5.72;1.65;;;;;;;5.49;50.99;100699.56;5084653;27;97229;-73
2023/03/12 01:40:15;;;;;;;8.75;1.83;;;;;;;5.52;50.90;100702.97;5084567;27;97473;-74
2023/03/12 01:42:41;;;;;;;4.15;1.70;;;;;;;5.37;50.96;100700.63;5084035;27;99062;-73
2023/03/12 01:45:41;;;;;;;4.13;1.63;;;;;;;5.54;51.09;100706.47;5090707;27;96781;-74
2023/03/12 01:48:10;;;;;;;5.88;1.38;;;;;;;5.76;49.92;100714.84;5088473;27;96829;-73
2023/03/12 01:50:37;;;;;;;6.35;1.45;;;;;;;5.97;49.41;100713.66;5078887;27;96744;-74
2023/03/12 01:53:03;;;;;;;7.50;1.50;;;;;;;6.23;49.08;100707.97;5089044;27;100758;-70
2023/03/12 01:55:30;;;;;;;6.57;1.30;;;;;;;5.98;49.79;100713.63;5078801;27;99079;-71
2023/03/12 01:57:58;;;;;;;10.98;1.45;;;;;;;6.07;49.92;100711.72;5080239;27;96924;-74
2023/03/12 02:00:27;;;;;;;5.05;1.75;;;;;;;6.12;50.11;100709.88;5081578;27;96837;-74
2023/03/12 02:02:58;;;;;;;4.72;1.45;;;;;;;6.42;49.28;100719.84;5079976;27;98858;-74
2023/03/12 02:05:32;;;;;;;3.28;1.25;;;;;;;6.38;48.80;100728.66;5079568;27;98848;-74
2023/03/12 02:07:59;;;;;;;9.05;1.20;;;;;;;6.26;48.96;100734.13;5081761;27;97667;-73
2023/03/12 02:10:26;;;;;;;5.35;1.63;;;;;;;6.37;49.27;100733.03;5083579;27;97334;-73
2023/03/12 02:12:53;;;;;;;7.43;1.48;;;;;;;6.29;48.64;100729.69;5081167;27;99420;-74
2023/03/12 02:15:19;;;;;;;6.47;1.45;;;;;;;6.50;48.22;100733.66;5077727;27;101272;-74
2023/03/12 02:17:46;;;;;;;6.90;1.45;;;;;;;6.51;48.31;100737.16;5082957;27;96913;-73
2023/03/12 02:20:17;;;;;;;4.72;1.52;;;;;;;6.30;48.41;100738.44;5081958;27;97136;-72
2023/03/12 02:22:52;;;;;;;3.28;1.50;;;;;;;6.20;49.41;100747.34;5077782;27;98207;-73
2023/03/12 02:25:29;;;;;;;2.30;1.30;;;;;;;6.45;49.13;100740.75;5081262;27;99434;-73
2023/03/12 02:27:57;;;;;;;3.15;1.45;;;;;;;6.52;48.59;100742.38;5084984;27;96762;-74
2023/03/12 02:30:25;;;;;;;10.35;1.90;;;;;;;6.46;48.67;100742.50;5077954;27;97842;-73
2023/03/12 02:32:51;;;;;;;6.70;1.70;;;;;;;6.41;49.09;100746.97;5080764;27;101250;-75
2023/03/12 02:35:19;;;;;;;1.60;0.93;;;;;;;6.24;49.35;100751.66;5080261;27;97533;-75
2023/03/12 02:37:50;;;;;;;4.57;1.20;;;;;;;5.91;50.06;100747.84;5081594;27;97289;-74
2023/03/12 02:40:22;;;;;;;5.20;1.67;;;;;;;6.03;50.00;100757.28;5081289;27;96835;-75
2023/03/12 02:42:50;;;;;;;3.38;1.35;;;;;;;5.93;50.06;100762.66;5077752;27;99498;-73
2023/03/12 02:45:17;;;;;;;4.07;1.30;;;;;;;5.79;50.61;100762.00;5081372;27;99044;-74
2023/03/12 02:47:44;;;;;;;8.95;2.28;;;;;;;5.73;51.02;100758.59;5078066;27;97067;-74
2023/03/12 02:50:10;;;;;;;9.50;1.60;;;;;;;5.69;50.89;100764.78;5075974;27;97434;-74
2023/03/12 02:52:37;;;;;;;12.93;1.63;;;;;;;5.62;51.13;100766.63;5072929;27;98943;-73
2023/03/12 02:55:04;;;;;;;7.88;1.73;;;;;;;5.61;51.42;100770.13;5084529;27;99178;-75
2023/03/12 02:57:30;;;;;;;5.75;1.75;;;;;;;5.57;50.89;100773.72;5080197;27;97161;-74
2023/03/12 02:59:58;;;;;;;3.35;1.60;;;;;;;5.52;51.36;100773.75;5078615;27;97161;-74
2023/03/12 03:02:25;;;;;;;7.55;1.63;;;;;;;5.83;50.83;100771.56;5072335;27;99577;-74
2023/03/12 03:04:52;;;;;;;12.60;1.42;;;;;;;5.67;51.23;100775.28;5076915;27;99038;-74
2023/03/12 03:07:18;;;;;;;8.98;1.73;;;;;;;5.62;51.45;100771.88;5083781;27;96859;-74
2023/03/12 03:09:45;;;;;;;6.97;1.55;;;;;;;5.50;51.85;100778.16;5074515;27;96957;-75
2023/03/12 03:12:11;;;;;;;2.63;1.40;;;;;;;5.63;51.75;100778.84;5084917;27;101048;-73
2023/03/12 03:14:37;;;;;;;2.92;1.30;;;;;;;5.28;51.96;100781.09;5087424;27;97587;-74
2023/03/12 03:17:05;;;;;;;3.72;1.30;;;;;;;5.10;52.80;100779.59;5073891;27;96747;-72
2023/03/12 03:19:32;;;;;;;3.88;1.48;;;;;;;5.30;52.65;100789.81;5081666;27;97187;-73
2023/03/12 03:21:58;;;;;;;6.05;1.80;;;;;;;5.18;52.27;100793.47;5078700;27;98888;-74
2023/03/12 03:24:25;;;;;;;7.97;1.95;;;;;;;5.12;52.55;100797.00;5089336;27;98227;-73
2023/03/12 03:26:51;;;;;;;7.57;2.08;;;;;;;5.33;52.18;100800.22;5075977;27;97048;-73
2023/03/12 03:29:17;;;;;;;7.85;1.92;;;;;;;5.15;52.56;100796.97;5088181;27;96974;-73
2023/03/12 03:31:44;;;;;;;5.53;1.70;;;;;;;4.90;53.79;100803.41;5088326;27;98833;-73
2023/03/12 03:34:11;;;;;;;8.93;2.35;;;;;;;4.89;54.00;100798.16;5084074;27;99047;-73
2023/03/12 03:36:38;;;;;;;6.05;1.85;;;;;;;4.91;53.54;100805.13;5082545;27;96757;-74
2023/03/12 03:39:04;;;;;;;4.43;1.70;;;;;;;4.96;53.44;100802.47;5074616;27;96957;-73
2023/03/12 03:41:31;;;;;;;5.47;1.60;;;;;;;4.92;53.59;100811.25;5087451;27;99331;-74
2023/03/12 03:43:59;;;;;;;3.67;2.00;;;;;;;4.91;54.04;100813.00;5076037;27;100497;-74
2023/03/12 03:46:25;;;;;;;4.93;2.08;;;;;;;4.91;53.77;100807.75;5082351;27;97523;-73
2023/03/12 03:48:52;;;;;;;7.82;1.80;;;;;;;5.01;54.01;100809.38;5081839;27;97194;-73
2023/03/12 03:51:20;;;;;;;8.18;1.73;;;;;;;5.06;53.58;100807.56;5081128;27;99066;-74
2023/03/12 03:53:46;;;;;;;3.58;1.92;;;;;;;5.14;53.02;100816.19;5087471;27;99057;-73
2023/03/12 03:56:14;;;;;;;5.78;1.85;;;;;;;5.21;52.65;100812.63;5090680;27;97135;-74
2023/03/12 03:58:41;;;;;;;4.45;1.67;;;;;;;5.19;53.11;100816.13;5083975;27;96862;-73
2023/03/12 04:01:08;;;;;;;7.10;1.80;;;;;;;5.13;52.87;100826.69;5074068;27;98067;-74
2023/03/12 04:03:34;;;;;;;7.80;1.63;;;;;;;5.07;53.15;100834.63;5080683;27;98973;-72
2023/03/12 04:06:02;;;;;;;7.03;3.15;;;;;;;5.19;52.98;100829.22;5088687;27;96808;-74
2023/03/12 04:08:34;;;;;;;8.88;2.28;;;;;;;5.08;53.30;100834.59;5086879;27;97077;-74
2023/03/12 04:11:06;;;;;;;6.97;3.10;;;;;;;5.04;53.47;100832.91;5087037;27;101412;-73
2023/03/12 04:13:33;;;;;;;7.13;2.90;;;;;;;4.82;53.83;100839.25;5079928;27;99326;-74
2023/03/12 04:15:59;;;;;;;4.97;2.42;;;;;;;4.73;54.77;100827.13;5080945;27;98399;-73
2023/03/12 04:18:25;;;;;;;7.32;2.72;;;;;;;5.06;53.61;100838.13;5081256;27;97147;-73
2023/03/12 04:20:52;;;;;;;9.40;2.70;;;;;;;5.17;53.75;100844.13;5085327;27;98878;-73
2023/03/12 04:23:18;;;;;;;7.10;2.92;;;;;;;5.18;53.62;100845.84;5087040;27;98463;-73
2023/03/12 04:25:46;;;;;;;9.18;3.30;;;;;;;4.98;54.87;100840.84;5081303;27;96913;-74
2023/03/12 04:28:12;;;;;;;5.40;2.90;;;;;;;4.79;55.38;100845.38;5080621;27;97891;-68
2023/03/12 04:30:39;;;;;;;9.20;2.90;;;;;;;4.68;55.58;100847.25;5083816;27;99074;-70
2023/03/12 04:33:05;;;;;;;5.95;2.90;;;;;;;4.74;55.85;100847.19;5084270;27;98729;-69
2023/03/12 04:35:32;;;;;;;7.28;2.70;;;;;;;4.68;55.58;100849.00;5082545;27;96785;-69
2023/03/12 04:38:00;;;;;;;17.73;3.47;;;;;;;4.71;56.30;100851.59;5080180;27;96840;-69
2023/03/12 04:40:26;;;;;;;10.05;2.92;;;;;;;4.63;56.30;100848.19;5085564;27;99219;-70
2023/03/12 04:42:54;;;;;;;7.88;3.05;;;;;;;4.67;56.39;100845.53;5080054;27;99207;-70
2023/03/12 04:45:24;;;;;;;6.07;2.80;;;;;;;4.78;55.98;100848.03;5075037;27;98884;-69
2023/03/12 04:47:50;;;;;;;6.30;2.80;;;;;;;4.98;55.62;100853.94;5080067;27;97576;-70
2023/03/12 04:50:17;;;;;;;6.55;3.00;;;;;;;4.91;55.75;100854.03;5083328;27;99016;-72
2023/03/12 04:52:43;;;;;;;10.10;3.70;;;;;;;4.71;56.52;100856.84;5075959;27;99525;-70
2023/03/12 04:55:10;;;;;;;5.50;3.53;;;;;;;4.58;57.08;100857.84;5081299;27;97728;-70
2023/03/12 04:57:36;;;;;;;8.30;3.42;;;;;;;4.64;56.44;100856.03;5085922;27;97138;-69
2023/03/12 05:00:12;;;;;;;8.80;3.33;;;;;;;4.72;56.12;100855.97;5075414;27;99649;-71
2023/03/12 05:02:39;;;;;;;11.40;3.33;;;;;;;4.85;56.20;100860.19;5078220;27;99246;-69
2023/03/12 05:05:06;;;;;;;9.50;3.83;;;;;;;4.76;55.85;100865.50;5076856;27;96904;-69
2023/03/12 05:07:32;;;;;;;7.05;3.55;;;;;;;4.89;56.31;100859.25;5082262;27;98650;-70
2023/03/12 05:09:59;;;;;;;8.63;3.60;;;;;;;4.98;55.81;100864.41;5080113;27;98913;-70
2023/03/12 05:12:26;;;;;;;6.78;3.45;;;;;;;4.91;56.25;100870.59;5080989;27;99274;-70
2023/03/12 05:14:52;;;;;;;5.25;3.20;;;;;;;5.00;55.64;100867.88;5089890;27;97472;-70
2023/03/12 05:17:20;;;;;;;9.00;3.65;;;;;;;4.94;55.98;100872.31;5085339;27;98621;-72
2023/03/12 05:19:46;;;;;;;11.90;3.10;;;;;;;5.10;55.63;100869.53;5074105;27;99303;-71
2023/03/12 05:22:13;;;;;;;6.68;2.90;;;;;;;4.88;55.60;100870.63;5077748;27;98589;-70
2023/03/12 05:24:39;;;;;;;6.97;2.80;;;;;;;4.79;55.64;100871.56;5084207;27;96739;-70
2023/03/12 05:27:07;;;;;;;10.50;3.47;;;;;;;5.05;55.26;100866.09;5079550;27;96929;-70
2023/03/12 05:29:34;;;;;;;7.28;2.92;;;;;;;4.70;55.91;100868.19;5091141;27;101157;-71
2023/03/12 05:32:01;;;;;;;9.05;2.95;;;;;;;4.69;55.60;100869.94;5078970;27;98663;-71
2023/03/12 05:34:29;;;;;;;10.55;2.90;;;;;;;4.95;55.37;100869.66;5078555;27;97450;-70
2023/03/12 05:36:55;;;;;;;3.67;2.58;;;;;;;4.82;55.42;100861.06;5082833;27;96760;-70
2023/03/12 05:39:22;;;;;;;7.93;2.65;;;;;;;4.80;56.03;100869.81;5072927;27;99765;-70
2023/03/12 05:41:48;;;;;;;7.43;2.70;;;;;;;4.75;55.75;100867.25;5085586;27;99289;-70
2023/03/12 05:44:16;;;;;;;6.13;2.38;;;;;;;4.92;55.15;100868.84;5080443;27;98922;-70
2023/03/12 05:46:42;;;;;;;7.68;2.42;;;;;;;5.00;55.04;100869.63;5082045;27;97434;-71
2023/03/12 05:49:09;;;;;;;6.60;2.42;;;;;;;4.79;55.84;100875.97;5087014;27;99457;-70
2023/03/12 05:51:37;;;;;;;5.28;2.40;;;;;;;4.92;55.53;100874.97;5076952;27;98615;-70
2023/03/12 05:54:04;;;;;;;5.20;2.53;;;;;;;4.98;55.42;100869.66;5086240;27;97085;-69
2023/03/12 05:56:31;;;;;;;7.95;2.72;;;;;;;5.18;54.43;100872.94;5085448;27;96987;-68
2023/03/12 05:58:57;;;;;;;5.07;2.38;;;;;;;5.04;54.54;100872.22;5075609;27;98995;-69
2023/03/12 06:01:26;;;;;;;5.75;2.03;;;;;;;5.11;54.88;100876.50;5084139;27;98884;-70
2023/03/12 06:03:53;;;;;;;7.20;2.45;;;;;;;5.19;54.12;100882.50;5073302;27;97122;-75
2023/03/12 06:06:20;;;;;;;8.02;2.40;;;;;;;5.21;54.19;100879.84;5082297;27;97436;-74
2023/03/12 06:08:48;;;;;;;6.70;2.45;;;;;;;5.23;54.57;100878.09;5083831;27;99069;-74
2023/03/12 06:11:14;;;;;;;8.40;2.10;;;;;;;5.27;54.11;100879.78;5081944;27;101344;-75
2023/03/12 06:13:41;;;;;;;6.45;2.25;;;;;;;5.29;53.68;100880.66;5082756;27;96815;-74
2023/03/12 06:16:11;;;;;;;3.83;1.92;;;;;;;5.20;54.02;100880.75;5086078;27;96896;-73
2023/03/12 06:18:38;;;;;;;10.85;3.42;;;;;;;5.30;54.14;100882.38;5081659;27;101646;-75
2023/03/12 06:21:09;;;;;;;7.50;2.13;;;;;;;5.30;53.85;100885.00;5076835;27;98927;-74
2023/03/12 06:23:36;;;;;;;3.85;2.35;;;;;;;5.32;53.99;100882.34;5082774;27;96745;-76
2023/03/12 06:26:04;;;;;;;5.93;2.40;;;;;;;5.36;54.23;100890.16;5080226;27;97690;-74
2023/03/12 06:28:30;;;;;;;4.88;2.15;;;;;;;5.32;54.23;100888.44;5074110;27;99243;-73
2023/03/12 06:30:57;;;;;;;8.10;2.10;;;;;;;5.65;53.71;100887.16;5084106;27;98889;-73
2023/03/12 06:33:23;;;;;;;5.70;2.22;;;;;;;5.81;53.25;100883.47;5087417;27;97557;-73
2023/03/12 06:35:53;;;;;;;4.85;2.40;;;;;;;5.59;53.00;100887.25;5080163;27;98238;-72
2023/03/12 06:38:20;;;;;;;5.22;2.45;;;;;;;6.02;52.14;100890.19;5077669;27;97716;-74
2023/03/12 06:40:54;;;;;;;4.97;2.20;;;;;;;5.98;52.26;100894.59;5077705;27;98843;-72
2023/03/12 06:43:21;;;;;;;5.80;2.30;;;;;;;5.86;51.90;100896.50;5081911;27;97305;-74
2023/03/12 06:45:48;;;;;;;5.65;2.40;;;;;;;5.78;52.91;100899.22;5078354;27;96877;-73
2023/03/12 06:48:14;;;;;;;8.57;2.20;;;;;;;5.82;52.25;100906.19;5088228;27;98904;-72
2023/03/12 06:50:41;;;;;;;6.55;2.05;;;;;;;5.89;52.50;100901.75;5082819;27;99021;-71
2023/03/12 06:53:07;;;;;;;5.53;2.25;;;;;;;5.65;52.67;100897.66;5083774;27;97662;-74
2023/03/12 06:55:33;;;;;;;5.72;2.00;;;;;;;5.73;52.77;100905.41;5084618;27;97115;-73
2023/03/12 06:58:01;;;;;;;2.95;1.50;;;;;;;5.66;52.54;100909.88;5087842;27;98876;-73
2023/03/12 07:00:28;;;;;;;6.88;2.10;;;;;;;5.72;52.89;100903.69;5094341;27;99130;-77
2023/03/12 07:02:55;;;;;;;5.82;2.10;;;;;;;5.84;52.44;100899.13;5095679;27;96815;-74
2023/03/12 07:05:22;;;;;;;8.75;2.67;;;;;;;5.76;52.55;100900.16;5088368;27;98725;-73
2023/03/12 07:07:51;;;;;;;4.60;2.10;;;;;;;5.78;52.55;100900.97;5091414;27;99208;-73
2023/03/12 07:10:18;;;;;;;4.30;2.40;;;;;;;6.06;52.01;100904.13;5088398;27;98254;-74
2023/03/12 07:12:45;;;;;;;6.45;3.40;;;;;;;6.30;51.26;100901.16;5082191;27;96836;-74
2023/03/12 07:15:12;;;;;;;5.82;2.25;;;;;;;6.51;50.60;100892.91;5087668;27;97285;-73
2023/03/12 07:17:40;;;;;;;4.20;2.25;;;;;;;6.46;51.13;100897.38;5080964;27;97834;-75
2023/03/12 07:20:07;;;;;;;7.20;2.35;;;;;;;6.87;49.89;100891.44;5089794;27;98840;-75
2023/03/12 07:22:33;;;;;;;9.65;3.38;;;;;;;6.70;49.84;100902.22;5082839;27;96869;-73
2023/03/12 07:25:00;;;;;;;6.20;2.13;;;;;;;6.70;50.04;100893.47;5085368;27;96905;-74
2023/03/12 07:27:26;;;;;;;12.75;2.40;;;;;;;6.75;49.72;100897.78;5091448;27;98169;-74
2023/03/12 07:29:52;;;;;;;9.45;3.00;;;;;;;6.86;49.52;100904.56;5095092;27;98005;-74
2023/03/12 07:32:19;;;;;;;4.70;2.20;;;;;;;6.60;50.04;100907.66;5079973;27;97235;-74
2023/03/12 07:34:46;;;;;;;8.10;2.20;;;;;;;6.85;49.80;100915.97;5077231;27;96857;-73
2023/03/12 07:37:13;;;;;;;3.97;2.25;;;;;;;6.74;49.31;100917.03;5079602;27;99408;-77
2023/03/12 07:39:40;;;;;;;5.95;2.25;;;;;;;6.52;50.18;100926.16;5094181;27;98897;-74
2023/03/12 07:42:06;;;;;;;6.70;2.60;;;;;;;6.36;50.60;100922.91;5095629;27;96958;-72
2023/03/12 07:44:35;;;;;;;6.57;2.42;;;;;;;6.51;50.69;100918.28;5074441;27;96898;-73
2023/03/12 07:47:02;;;;;;;7.07;2.15;;;;;;;6.92;50.10;100928.97;5081949;27;101279;-72
2023/03/12 07:49:28;;;;;;;6.13;2.22;;;;;;;7.09;49.57;100918.16;5078541;27;98083;-73
2023/03/12 07:51:56;;;;;;;4.93;2.15;;;;;;;7.16;48.95;100915.38;5081764;27;97040;-72
2023/03/12 07:54:27;;;;;;;13.32;2.33;;;;;;;7.69;48.37;100917.84;5080160;27;97359;-74
2023/03/12 07:56:54;;;;;;;8.00;2.10;;;;;;;7.88;47.58;100917.41;5079029;27;99297;-76
2023/03/12 07:59:21;;;;;;;6.60;2.45;;;;;;;7.86;47.57;100927.13;5086063;27;98731;-72
2023/03/12 08:01:47;;;;;;;9.13;2.03;;;;;;;8.07;47.12;100922.31;5083983;27;97172;-73
2023/03/12 08:04:13;;;;;;;3.95;1.90;;;;;;;7.99;46.55;100923.34;5074767;27;97279;-72
2023/03/12 08:06:41;;;;;;;4.05;1.88;;;;;;;8.04;46.47;100922.34;5085330;27;99466;-74
2023/03/12 08:09:09;;;;;;;9.57;2.08;;;;;;;8.08;46.40;100930.13;5074799;27;99335;-75
2023/03/12 08:11:36;;;;;;;5.30;1.73;;;;;;;8.10;46.75;100933.59;5079599;27;97398;-74
2023/03/12 08:14:02;;;;;;;5.50;1.80;;;;;;;7.91;46.28;100930.53;5082259;27;97386;-74
2023/03/12 08:16:29;;;;;;;6.90;2.03;;;;;;;8.23;46.13;100929.81;5073276;27;98952;-73
2023/03/12 08:18:55;;;;;;;5.63;1.83;;;;;;;7.91;45.98;100932.28;5081091;27;99081;-73
2023/03/12 08:21:22;;;;;;;5.65;2.00;;;;;;;8.14;46.04;100930.00;5086563;27;97651;-73
2023/03/12 08:23:48;;;;;;;10.95;1.90;;;;;;;8.43;45.83;100931.13;5079516;27;96781;-74
2023/03/12 08:26:16;;;;;;;3.95;2.00;;;;;;;8.44;45.45;100927.59;5081066;27;98955;-74
2023/03/12 08:28:42;;;;;;;6.50;1.88;;;;;;;8.57;44.94;100921.13;5091447;27;99020;-74
2023/03/12 08:31:09;;;;;;;4.30;2.00;;;;;;;8.88;44.41;100922.09;5083034;27;97296;-74
2023/03/12 08:33:35;;;;;;;5.75;1.80;;;;;;;9.05;44.02;100929.56;5081303;27;98927;-72
2023/03/12 08:36:02;;;;;;;6.32;1.95;;;;;;;9.22;43.58;100929.13;5077841;27;104072;-73
2023/03/12 08:38:28;;;;;;;3.72;2.60;;;;;;;9.51;42.97;100937.97;5078132;27;98951;-71
2023/03/12 08:40:56;;;;;;;8.32;1.90;;;;;;;9.24;43.27;100933.44;5078589;27;98140;-74
2023/03/12 08:43:25;;;;;;;4.95;1.65;;;;;;;9.87;42.26;100930.75;5076026;27;96913;-73
2023/03/12 08:45:55;;;;;;;10.52;2.42;;;;;;;10.21;41.28;100919.22;5075862;27;99755;-73
2023/03/12 08:48:21;;;;;;;6.05;2.10;;;;;;;10.10;41.79;100921.28;5076555;27;99326;-73
2023/03/12 08:50:47;;;;;;;6.38;1.75;;;;;;;10.25;41.66;100919.06;5082926;27;97467;-74
2023/03/12 08:53:14;;;;;;;6.80;1.70;;;;;;;9.91;41.15;100923.63;5076302;27;97220;-74
2023/03/12 08:55:40;;;;;;;7.45;1.92;;;;;;;10.03;41.06;100915.34;5083064;27;98865;-74
2023/03/12 08:58:06;;;;;;;8.48;1.98;;;;;;;9.73;41.64;100917.09;5080108;27;97520;-74
2023/03/12 09:00:34;;;;;;;8.82;1.80;;;;;;;9.73;41.89;100916.22;5078445;27;96838;-75
2023/03/12 09:03:01;;;;;;;3.40;1.20;;;;;;;9.13;43.03;100911.75;5077264;27;99072;-73
2023/03/12 09:05:28;;;;;;;5.38;1.67;;;;;;;9.45;42.24;100921.47;5076113;27;99403;-73
2023/03/12 09:07:56;;;;;;;3.50;1.67;;;;;;;9.51;41.92;100918.63;5080632;27;98915;-74
2023/03/12 09:10:22;;;;;;;5.20;1.50;;;;;;;9.40;42.72;100921.56;5085506;27;97300;-74
2023/03/12 09:12:49;;;;;;;5.35;1.58;;;;;;;9.69;41.62;100933.94;5077612;27;97385;-73
2023/03/12 09:15:15;;;;;;;4.05;1.30;;;;;;;9.91;41.51;100921.00;5073886;27;99287;-73
2023/03/12 09:17:43;;;;;;;5.07;1.02;;;;;;;9.88;40.87;100916.66;5076667;27;100318;-74
2023/03/12 09:20:12;;;;;;;3.97;1.00;;;;;;;10.08;40.52;100901.97;5081441;27;96851;-74
2023/03/12 09:22:40;;;;;;;5.03;1.20;;;;;;;10.36;39.66;100897.59;5080787;27;97563;-75
2023/03/12 09:25:10;;;;;;;5.72;1.10;;;;;;;10.60;39.08;100904.72;5075172;27;99080;-75
2023/03/12 09:27:37;;;;;;;4.85;1.00;;;;;;;10.55;38.79;100909.31;5080136;27;98826;-75
2023/03/12 09:30:05;;;;;;;5.55;1.17;;;;;;;10.54;39.24;100901.41;5078469;27;96820;-75
2023/03/12 09:32:31;;;;;;;4.07;0.82;;;;;;;10.86;38.46;100898.56;5081431;27;97222;-76
2023/03/12 09:34:59;;;;;;;5.07;1.02;;;;;;;10.81;38.96;100910.22;5090979;27;101464;-76
2023/03/12 09:37:25;;;;;;;3.72;1.23;;;;;;;10.60;38.93;100895.94;5073594;27;98913;-75
2023/03/12 09:39:52;;;;;;;3.88;1.25;;;;;;;10.60;39.39;100903.84;5081486;27;97116;-75
2023/03/12 09:42:23;;;;;;;10.15;1.30;;;;;;;10.33;39.67;100895.03;5079727;27;96804;-75
2023/03/12 09:44:51;;;;;;;3.50;0.88;;;;;;;10.56;39.17;100897.81;5075760;27;98835;-76
2023/03/12 09:47:26;;;;;;;6.00;1.20;;;;;;;10.53;40.46;100902.31;5077497;27;99371;-74
2023/03/12 09:49:56;;;;;;;3.92;1.02;;;;;;;10.68;39.37;100905.34;5073715;27;97284;-76
2023/03/12 09:52:29;;;;;;;5.75;0.80;;;;;;;10.77;39.07;100902.38;5082746;27;96913;-75
2023/03/12 09:55:02;;;;;;;6.40;1.30;;;;;;;10.86;39.05;100890.63;5070853;27;99328;-75
2023/03/12 09:57:30;;;;;;;7.28;1.40;;;;;;;11.15;38.35;100893.13;5076006;27;99046;-75
2023/03/12 09:59:56;;;;;;;4.05;1.05;;;;;;;11.10;37.69;100889.75;5081250;27;98184;-75
2023/03/12 10:02:54;;;;;;;3.60;1.00;;;;;;;11.16;36.91;100886.03;5081312;27;99112;-75
2023/03/12 10:05:25;;;;;;;;;;;;;;;11.40;37.10;100887.81;5049051;27;99193;-77
2023/03/12 10:07:59;;;;;;;4.75;0.70;;;;;;;11.42;37.11;100879.84;5088625;27;100800;-76
2023/03/12 10:10:42;;;;;;;3.05;1.23;;;;;;;11.33;37.52;100880.16;5076051;27;97519;-75
2023/03/12 10:13:18;;;;;;;6.28;1.00;;;;;;;11.65;36.74;100878.97;5080360;27;96987;-76
2023/03/12 10:15:52;;;;;;;3.97;1.17;;;;;;;11.56;37.09;100878.38;5071022;27;99630;-77
2023/03/12 10:18:33;;;;;;;5.05;1.20;;;;;;;11.96;36.42;100872.44;5073783;27;99253;-76
2023/03/12 10:21:37;;;;;;;9.38;1.25;;;;;;;11.82;36.40;100873.91;5090711;27;96901;-75
2023/03/12 10:24:21;;;;;;;4.45;1.20;;;;;;;11.66;37.07;100875.38;5071991;27;99413;-76
2023/03/12 10:26:50;;;;;;;8.48;2.72;;;;;;;11.87;36.37;100861.38;5081233;27;99055;-75
2023/03/12 10:29:20;;;;;;;3.65;1.15;;;;;;;12.02;35.69;100852.81;5075945;27;98998;-75
2023/03/12 10:31:54;;;;;;;3.42;1.55;;;;;;;11.92;36.37;100852.31;5079425;27;97692;-74
2023/03/12 10:34:29;;;;;;;7.55;1.05;;;;;;;11.81;36.81;100843.94;5084979;27;98987;-76
2023/03/12 10:37:00;;;;;;;21.67;7.38;;;;;;;11.91;36.82;100840.00;5072342;27;98886;-74
2023/03/12 10:39:28;;;;;;;3.17;1.10;;;;;;;12.15;36.33;100848.75;5077987;27;97529;-75
2023/03/12 10:41:56;;;;;;;6.57;1.35;;;;;;;12.08;36.32;100847.25;5076692;27;97279;-74
2023/03/12 10:44:25;;;;;;;6.43;1.23;;;;;;;12.02;36.16;100860.75;5079523;27;97011;-74
2023/03/12 10:46:59;;;;;;;3.78;1.33;;;;;;;11.45;36.61;100843.53;5072944;27;99274;-75
2023/03/12 10:49:31;;;;;;;2.40;1.02;;;;;;;11.18;37.03;100834.81;5076199;27;98864;-75
2023/03/12 10:52:00;;;;;;;2.90;1.02;;;;;;;11.18;36.27;100842.75;5080681;27;98507;-74
2023/03/12 10:54:31;;;;;;;2.65;0.60;;;;;;;10.93;36.38;100848.97;5075922;27;97163;-74
2023/03/12 10:56:58;;;;;;;3.53;0.60;;;;;;;10.66;36.57;100832.28;5086140;27;99526;-75
2023/03/12 10:59:28;;;;;;;4.22;0.90;;;;;;;10.88;36.40;100828.00;5074781;27;98832;-74
2023/03/12 11:01:54;;;;;;;4.43;0.75;;;;;;;11.21;34.93;100828.56;5079851;27;99086;-75
2023/03/12 11:04:24;;;;;;;3.97;0.82;;;;;;;11.45;35.22;100821.47;5079328;27;96804;-74
2023/03/12 11:07:19;;;;;;;5.95;0.90;;;;;;;11.91;34.45;100824.13;5076308;27;100178;-76
2023/03/12 11:10:04;;;;;;;4.53;0.70;;;;;;;11.67;34.58;100811.81;5077812;27;98958;-76
2023/03/12 11:12:31;;;;;;;3.45;1.05;;;;;;;11.83;34.74;100814.75;5079006;27;96930;-75
2023/03/12 11:14:57;;;;;;;6.40;1.00;;;;;;;11.78;35.06;100811.41;5080042;27;97512;-75
2023/03/12 11:17:26;;;;;;;4.22;1.10;;;;;;;11.75;34.92;100811.56;5078765;27;98906;-78
2023/03/12 11:19:53;;;;;;;5.07;1.08;;;;;;;11.71;35.17;100807.25;5078068;27;101405;-77
2023/03/12 11:22:31;;;;;;;4.85;1.35;;;;;;;11.78;35.57;100807.00;5083235;27;96738;-77
2023/03/12 11:25:01;;;;;;;3.50;1.23;;;;;;;11.87;35.32;100801.34;5076295;27;97313;-78
2023/03/12 11:27:37;;;;;;;5.40;1.10;;;;;;;12.42;34.69;100788.47;5076992;27;101699;-80
2023/03/12 11:30:07;;;;;;;7.70;1.10;;;;;;;13.00;34.33;100797.38;5075934;27;99170;-77
2023/03/12 11:32:37;;;;;;;5.47;1.30;;;;;;;12.76;32.95;100795.81;5078905;27;97099;-78
2023/03/12 11:35:09;;;;;;;6.53;2.13;;;;;;;12.48;33.43;100788.19;5078816;27;97130;-77
2023/03/12 11:37:48;;;;;;;5.88;1.63;;;;;;;12.43;33.02;100784.03;5078303;27;98528;-78